This is the latest recevied weather packets stored in our database for station/object EB2GLU-13. If no packets are shown the sender has not sent any weather packets the latest 1 day(s).
| Time | Temp. | Humidity | Pressure | Rain* | Wind** | Luminosity | Snow |
|---|---|---|---|---|---|---|---|
| 1778325074 | 19.44° C | 64% | 1009.6 hPa | 0 mm | - | - | - |
| 1778323574 | 19.44° C | 64% | 1009.6 hPa | 0 mm | - | - | - |
| 1778322814 | 20.56° C | 62% | 1009.6 hPa | 0 mm | - | - | - |
| 1778322064 | 20° C | 61% | 1009.2 hPa | 0 mm | - | - | - |
| 1778321314 | 19.44° C | 61% | 1009.1 hPa | 0 mm | - | - | - |
| 1778319814 | 19.44° C | 60% | 1009.7 hPa | 0 mm | - | - | - |
| 1778319064 | 19.44° C | 61% | 1009.6 hPa | 0 mm | - | - | - |
| 1778318314 | 20° C | 60% | 1010 hPa | 0 mm | - | - | - |
| 1778317564 | 20° C | 60% | 1009.6 hPa | 0 mm | - | - | - |
| 1778316814 | 20° C | 61% | 1009.9 hPa | 0 mm | - | - | - |
| 1778316064 | 18.89° C | 63% | 1010 hPa | 0 mm | - | - | - |
| 1778315314 | 18.89° C | 64% | 1010.3 hPa | 0 mm | - | - | - |
| 1778314564 | 18.89° C | 63% | 1010 hPa | 0 mm | - | - | - |
| 1778313814 | 18.89° C | 68% | 1010.4 hPa | 0 mm | - | - | - |
| 1778313064 | 18.33° C | 65% | 1010.4 hPa | 0 mm | - | - | - |
| 1778312314 | 18.33° C | 65% | 1010.3 hPa | 0 mm | - | - | - |
| 1778311564 | 18.33° C | 65% | 1010.5 hPa | 0 mm | - | - | - |
| 1778310814 | 18.33° C | 65% | 1010.6 hPa | 0 mm | - | - | - |
| 1778310064 | 19.44° C | 64% | 1010.3 hPa | 0 mm | - | - | - |
| 1778309314 | 18.89° C | 66% | 1010.4 hPa | 0 mm | - | - | - |
| 1778306314 | 13.89° C | 85% | 1010.1 hPa | 0 mm | - | - | - |
| 1778300313 | 13.33° C | 83% | 1010.1 hPa | 0 mm | - | - | - |
| 1778298813 | 11.67° C | 91% | 1010.4 hPa | 0 mm | - | - | - |
| 1778298063 | 11.67° C | 90% | 1010.5 hPa | 0 mm | - | - | - |
| 1778297313 | 11.67° C | 90% | 1010.3 hPa | 0 mm | - | - | - |
* Rain latest hour (hover to see other rain measurements)
** Current wind speed in m/s (hover to see current wind gust speed)